sensor_id;sensor_type;location;lat;lon;timestamp;temperature;humidity
26254;DHT22;53339;51.378;0.094;2023-09-30T00:01:23;13.40;85.50
26254;DHT22;53339;51.378;0.094;2023-09-30T00:04:03;13.40;85.40
26254;DHT22;53339;51.378;0.094;2023-09-30T00:07:00;13.40;85.40
26254;DHT22;53339;51.378;0.094;2023-09-30T00:09:50;13.40;85.50
26254;DHT22;53339;51.378;0.094;2023-09-30T00:12:29;13.50;85.70
26254;DHT22;53339;51.378;0.094;2023-09-30T00:15:22;13.40;85.80
26254;DHT22;53339;51.378;0.094;2023-09-30T00:18:03;13.40;85.90
26254;DHT22;53339;51.378;0.094;2023-09-30T00:20:33;13.40;85.90
26254;DHT22;53339;51.378;0.094;2023-09-30T00:23:03;13.40;85.90
26254;DHT22;53339;51.378;0.094;2023-09-30T00:25:49;13.40;85.90
26254;DHT22;53339;51.378;0.094;2023-09-30T00:28:31;13.30;86.00
26254;DHT22;53339;51.378;0.094;2023-09-30T00:30:59;13.30;86.20
26254;DHT22;53339;51.378;0.094;2023-09-30T00:33:26;13.40;86.40
26254;DHT22;53339;51.378;0.094;2023-09-30T00:35:57;13.40;86.40
26254;DHT22;53339;51.378;0.094;2023-09-30T00:38:58;13.40;86.30
26254;DHT22;53339;51.378;0.094;2023-09-30T00:41:45;13.40;86.20
26254;DHT22;53339;51.378;0.094;2023-09-30T00:44:13;13.40;86.30
26254;DHT22;53339;51.378;0.094;2023-09-30T00:46:59;13.40;86.40
26254;DHT22;53339;51.378;0.094;2023-09-30T00:49:28;13.40;86.50
26254;DHT22;53339;51.378;0.094;2023-09-30T00:51:59;13.50;86.60
26254;DHT22;53339;51.378;0.094;2023-09-30T00:54:30;13.50;86.60
26254;DHT22;53339;51.378;0.094;2023-09-30T00:57:03;13.50;86.60
26254;DHT22;53339;51.378;0.094;2023-09-30T00:59:38;13.50;86.50
26254;DHT22;53339;51.378;0.094;2023-09-30T01:02:11;13.50;86.70
26254;DHT22;53339;51.378;0.094;2023-09-30T01:04:51;13.50;86.60
26254;DHT22;53339;51.378;0.094;2023-09-30T01:07:26;13.60;86.70
26254;DHT22;53339;51.378;0.094;2023-09-30T01:09:57;13.60;86.70
26254;DHT22;53339;51.378;0.094;2023-09-30T01:12:31;13.50;86.60
26254;DHT22;53339;51.378;0.094;2023-09-30T01:14:59;13.50;86.70
26254;DHT22;53339;51.378;0.094;2023-09-30T01:17:38;13.50;86.70
26254;DHT22;53339;51.378;0.094;2023-09-30T01:20:09;13.50;86.80
26254;DHT22;53339;51.378;0.094;2023-09-30T01:23:06;13.50;86.80
26254;DHT22;53339;51.378;0.094;2023-09-30T01:26:00;13.50;87.00
26254;DHT22;53339;51.378;0.094;2023-09-30T01:28:28;13.50;87.10
26254;DHT22;53339;51.378;0.094;2023-09-30T01:30:58;13.50;87.00
26254;DHT22;53339;51.378;0.094;2023-09-30T01:33:43;13.50;87.10
26254;DHT22;53339;51.378;0.094;2023-09-30T01:36:14;13.40;87.10
26254;DHT22;53339;51.378;0.094;2023-09-30T01:38:52;13.40;87.10
26254;DHT22;53339;51.378;0.094;2023-09-30T01:41:36;13.30;87.10
26254;DHT22;53339;51.378;0.094;2023-09-30T01:44:08;13.30;87.10
26254;DHT22;53339;51.378;0.094;2023-09-30T01:46:58;13.20;87.10
26254;DHT22;53339;51.378;0.094;2023-09-30T01:49:40;13.10;87.10
26254;DHT22;53339;51.378;0.094;2023-09-30T01:52:29;13.00;87.10
26254;DHT22;53339;51.378;0.094;2023-09-30T01:54:58;13.00;87.20
26254;DHT22;53339;51.378;0.094;2023-09-30T01:57:39;12.90;87.30
26254;DHT22;53339;51.378;0.094;2023-09-30T02:00:46;12.90;87.40
26254;DHT22;53339;51.378;0.094;2023-09-30T02:03:19;12.90;87.50
26254;DHT22;53339;51.378;0.094;2023-09-30T02:05:51;12.90;87.50
26254;DHT22;53339;51.378;0.094;2023-09-30T02:08:27;12.90;87.50
26254;DHT22;53339;51.378;0.094;2023-09-30T02:11:31;13.00;87.60
26254;DHT22;53339;51.378;0.094;2023-09-30T02:14:01;13.00;87.70
26254;DHT22;53339;51.378;0.094;2023-09-30T02:16:34;13.10;87.70
26254;DHT22;53339;51.378;0.094;2023-09-30T02:19:24;13.10;87.60
26254;DHT22;53339;51.378;0.094;2023-09-30T02:22:22;13.10;87.60
26254;DHT22;53339;51.378;0.094;2023-09-30T02:24:55;13.10;87.50
26254;DHT22;53339;51.378;0.094;2023-09-30T02:27:27;13.10;87.60
26254;DHT22;53339;51.378;0.094;2023-09-30T02:30:04;13.10;87.70
26254;DHT22;53339;51.378;0.094;2023-09-30T02:32:49;13.10;87.70
26254;DHT22;53339;51.378;0.094;2023-09-30T02:35:44;13.10;87.70
26254;DHT22;53339;51.378;0.094;2023-09-30T02:38:30;13.20;87.70
26254;DHT22;53339;51.378;0.094;2023-09-30T02:41:05;13.10;87.60
26254;DHT22;53339;51.378;0.094;2023-09-30T02:43:43;13.10;87.70
26254;DHT22;53339;51.378;0.094;2023-09-30T02:46:17;13.10;87.70
26254;DHT22;53339;51.378;0.094;2023-09-30T02:48:48;13.10;87.60
26254;DHT22;53339;51.378;0.094;2023-09-30T02:51:21;13.00;87.70
26254;DHT22;53339;51.378;0.094;2023-09-30T02:54:00;13.00;87.70
26254;DHT22;53339;51.378;0.094;2023-09-30T02:56:35;12.90;87.70
26254;DHT22;53339;51.378;0.094;2023-09-30T02:59:07;12.90;87.80
26254;DHT22;53339;51.378;0.094;2023-09-30T03:01:52;12.90;87.90
26254;DHT22;53339;51.378;0.094;2023-09-30T03:04:28;12.90;88.00
26254;DHT22;53339;51.378;0.094;2023-09-30T03:07:24;13.00;88.10
26254;DHT22;53339;51.378;0.094;2023-09-30T03:10:06;13.00;88.20
26254;DHT22;53339;51.378;0.094;2023-09-30T03:12:36;13.00;88.20
26254;DHT22;53339;51.378;0.094;2023-09-30T03:15:04;13.00;88.30
26254;DHT22;53339;51.378;0.094;2023-09-30T03:17:41;13.00;88.30
26254;DHT22;53339;51.378;0.094;2023-09-30T03:20:14;13.00;88.40
26254;DHT22;53339;51.378;0.094;2023-09-30T03:22:56;13.00;88.40
26254;DHT22;53339;51.378;0.094;2023-09-30T03:25:28;13.00;88.30
26254;DHT22;53339;51.378;0.094;2023-09-30T03:28:05;12.90;88.20
26254;DHT22;53339;51.378;0.094;2023-09-30T03:30:34;12.70;87.90
26254;DHT22;53339;51.378;0.094;2023-09-30T03:33:13;12.60;88.00
26254;DHT22;53339;51.378;0.094;2023-09-30T03:35:57;12.60;88.10
26254;DHT22;53339;51.378;0.094;2023-09-30T03:38:31;12.60;88.30
26254;DHT22;53339;51.378;0.094;2023-09-30T03:41:06;12.60;88.40
26254;DHT22;53339;51.378;0.094;2023-09-30T03:43:41;12.60;88.50
26254;DHT22;53339;51.378;0.094;2023-09-30T03:46:16;12.60;88.50
26254;DHT22;53339;51.378;0.094;2023-09-30T03:48:50;12.60;88.40
26254;DHT22;53339;51.378;0.094;2023-09-30T03:51:18;12.50;88.30
26254;DHT22;53339;51.378;0.094;2023-09-30T03:53:46;12.40;88.30
26254;DHT22;53339;51.378;0.094;2023-09-30T03:56:15;12.30;88.40
26254;DHT22;53339;51.378;0.094;2023-09-30T03:59:11;12.30;88.40
26254;DHT22;53339;51.378;0.094;2023-09-30T04:01:43;12.30;88.40
26254;DHT22;53339;51.378;0.094;2023-09-30T04:04:25;12.20;88.40
26254;DHT22;53339;51.378;0.094;2023-09-30T04:06:53;12.20;88.40
26254;DHT22;53339;51.378;0.094;2023-09-30T04:09:22;12.20;88.50
26254;DHT22;53339;51.378;0.094;2023-09-30T04:12:18;12.10;88.50
26254;DHT22;53339;51.378;0.094;2023-09-30T04:14:46;12.10;88.50
26254;DHT22;53339;51.378;0.094;2023-09-30T04:17:13;12.10;88.50
26254;DHT22;53339;51.378;0.094;2023-09-30T04:19:41;12.00;88.40
26254;DHT22;53339;51.378;0.094;2023-09-30T04:22:12;11.90;88.40
26254;DHT22;53339;51.378;0.094;2023-09-30T04:24:56;11.90;88.50
26254;DHT22;53339;51.378;0.094;2023-09-30T04:27:30;11.90;88.70
26254;DHT22;53339;51.378;0.094;2023-09-30T04:30:04;11.90;88.80
26254;DHT22;53339;51.378;0.094;2023-09-30T04:32:37;12.00;89.00
26254;DHT22;53339;51.378;0.094;2023-09-30T04:35:07;11.90;89.00
26254;DHT22;53339;51.378;0.094;2023-09-30T04:37:47;12.00;89.00
26254;DHT22;53339;51.378;0.094;2023-09-30T04:40:25;12.00;89.20
26254;DHT22;53339;51.378;0.094;2023-09-30T04:43:03;12.00;89.20
26254;DHT22;53339;51.378;0.094;2023-09-30T04:45:37;12.10;89.30
26254;DHT22;53339;51.378;0.094;2023-09-30T04:48:05;12.20;89.30
26254;DHT22;53339;51.378;0.094;2023-09-30T04:50:43;12.20;89.30
26254;DHT22;53339;51.378;0.094;2023-09-30T04:53:13;12.20;89.40
26254;DHT22;53339;51.378;0.094;2023-09-30T04:55:55;12.20;89.40
26254;DHT22;53339;51.378;0.094;2023-09-30T04:58:38;12.20;89.30
26254;DHT22;53339;51.378;0.094;2023-09-30T05:01:19;12.20;89.20
26254;DHT22;53339;51.378;0.094;2023-09-30T05:04:02;12.10;89.20
26254;DHT22;53339;51.378;0.094;2023-09-30T05:06:45;12.10;89.30
26254;DHT22;53339;51.378;0.094;2023-09-30T05:09:36;12.20;89.40
26254;DHT22;53339;51.378;0.094;2023-09-30T05:12:21;12.20;89.50
26254;DHT22;53339;51.378;0.094;2023-09-30T05:14:59;12.20;89.60
26254;DHT22;53339;51.378;0.094;2023-09-30T05:17:31;12.30;89.60
26254;DHT22;53339;51.378;0.094;2023-09-30T05:20:15;12.30;89.60
26254;DHT22;53339;51.378;0.094;2023-09-30T05:23:03;12.30;89.60
26254;DHT22;53339;51.378;0.094;2023-09-30T05:25:34;12.30;89.60
26254;DHT22;53339;51.378;0.094;2023-09-30T05:28:14;12.40;89.70
26254;DHT22;53339;51.378;0.094;2023-09-30T05:30:46;12.40;89.60
26254;DHT22;53339;51.378;0.094;2023-09-30T05:33:23;12.40;89.60
26254;DHT22;53339;51.378;0.094;2023-09-30T05:36:07;12.40;89.60
26254;DHT22;53339;51.378;0.094;2023-09-30T05:38:36;12.40;89.60
26254;DHT22;53339;51.378;0.094;2023-09-30T05:41:19;12.40;89.60
26254;DHT22;53339;51.378;0.094;2023-09-30T05:43:48;12.40;89.70
26254;DHT22;53339;51.378;0.094;2023-09-30T05:46:23;12.30;89.60
26254;DHT22;53339;51.378;0.094;2023-09-30T05:48:53;12.30;89.60
26254;DHT22;53339;51.378;0.094;2023-09-30T05:51:28;12.30;89.60
26254;DHT22;53339;51.378;0.094;2023-09-30T05:54:01;12.30;89.70
26254;DHT22;53339;51.378;0.094;2023-09-30T05:56:49;12.30;89.70
26254;DHT22;53339;51.378;0.094;2023-09-30T05:59:20;12.30;89.70
26254;DHT22;53339;51.378;0.094;2023-09-30T06:01:59;12.30;89.80
26254;DHT22;53339;51.378;0.094;2023-09-30T06:04:52;12.30;89.80
26254;DHT22;53339;51.378;0.094;2023-09-30T06:07:30;12.30;89.70
26254;DHT22;53339;51.378;0.094;2023-09-30T06:10:05;12.30;89.80
26254;DHT22;53339;51.378;0.094;2023-09-30T06:15:41;12.30;89.80
26254;DHT22;53339;51.378;0.094;2023-09-30T06:18:13;12.20;89.70
26254;DHT22;53339;51.378;0.094;2023-09-30T06:20:52;12.20;89.70
26254;DHT22;53339;51.378;0.094;2023-09-30T06:23:40;12.20;89.70
26254;DHT22;53339;51.378;0.094;2023-09-30T06:26:13;12.20;89.80
26254;DHT22;53339;51.378;0.094;2023-09-30T06:28:52;12.20;89.90
26254;DHT22;53339;51.378;0.094;2023-09-30T06:31:26;12.20;89.90
26254;DHT22;53339;51.378;0.094;2023-09-30T06:34:02;12.30;89.90
26254;DHT22;53339;51.378;0.094;2023-09-30T06:36:41;12.30;89.90
26254;DHT22;53339;51.378;0.094;2023-09-30T06:39:29;12.30;90.00
26254;DHT22;53339;51.378;0.094;2023-09-30T06:41:57;12.40;89.90
26254;DHT22;53339;51.378;0.094;2023-09-30T06:44:32;12.40;89.90
26254;DHT22;53339;51.378;0.094;2023-09-30T06:47:05;12.40;90.00
26254;DHT22;53339;51.378;0.094;2023-09-30T06:50:08;12.40;90.00
26254;DHT22;53339;51.378;0.094;2023-09-30T06:52:51;12.50;90.10
26254;DHT22;53339;51.378;0.094;2023-09-30T06:55:19;12.60;90.10
26254;DHT22;53339;51.378;0.094;2023-09-30T06:57:58;12.60;90.20
26254;DHT22;53339;51.378;0.094;2023-09-30T07:00:44;12.70;90.10
26254;DHT22;53339;51.378;0.094;2023-09-30T07:03:35;12.70;90.20
26254;DHT22;53339;51.378;0.094;2023-09-30T07:06:25;12.70;89.90
26254;DHT22;53339;51.378;0.094;2023-09-30T07:09:12;12.70;89.90
26254;DHT22;53339;51.378;0.094;2023-09-30T07:11:54;12.70;89.80
26254;DHT22;53339;51.378;0.094;2023-09-30T07:14:38;12.70;89.80
26254;DHT22;53339;51.378;0.094;2023-09-30T07:17:30;12.70;89.90
26254;DHT22;53339;51.378;0.094;2023-09-30T07:20:07;12.70;89.80
26254;DHT22;53339;51.378;0.094;2023-09-30T07:22:42;12.70;89.80
26254;DHT22;53339;51.378;0.094;2023-09-30T07:25:45;12.70;89.80
26254;DHT22;53339;51.378;0.094;2023-09-30T07:28:19;12.70;89.70
26254;DHT22;53339;51.378;0.094;2023-09-30T07:30:57;12.60;89.60
26254;DHT22;53339;51.378;0.094;2023-09-30T07:33:26;12.60;89.70
26254;DHT22;53339;51.378;0.094;2023-09-30T07:36:17;12.60;89.80
26254;DHT22;53339;51.378;0.094;2023-09-30T07:39:03;12.70;89.90
26254;DHT22;53339;51.378;0.094;2023-09-30T07:41:54;12.70;90.00
26254;DHT22;53339;51.378;0.094;2023-09-30T07:44:30;12.90;90.00
26254;DHT22;53339;51.378;0.094;2023-09-30T07:47:20;12.90;90.10
26254;DHT22;53339;51.378;0.094;2023-09-30T07:49:49;13.00;90.10
26254;DHT22;53339;51.378;0.094;2023-09-30T07:52:29;13.10;90.10
26254;DHT22;53339;51.378;0.094;2023-09-30T07:54:59;13.20;90.10
26254;DHT22;53339;51.378;0.094;2023-09-30T07:57:29;13.30;90.10
26254;DHT22;53339;51.378;0.094;2023-09-30T08:00:02;13.30;90.10
26254;DHT22;53339;51.378;0.094;2023-09-30T08:02:41;13.40;90.10
26254;DHT22;53339;51.378;0.094;2023-09-30T08:05:20;13.50;90.10
26254;DHT22;53339;51.378;0.094;2023-09-30T08:07:54;13.50;90.10
26254;DHT22;53339;51.378;0.094;2023-09-30T08:10:34;13.60;90.10
26254;DHT22;53339;51.378;0.094;2023-09-30T08:13:04;13.60;90.10
26254;DHT22;53339;51.378;0.094;2023-09-30T08:15:44;13.70;90.10
26254;DHT22;53339;51.378;0.094;2023-09-30T08:18:29;13.80;90.10
26254;DHT22;53339;51.378;0.094;2023-09-30T08:20:58;13.90;90.10
26254;DHT22;53339;51.378;0.094;2023-09-30T08:24:05;14.00;90.10
26254;DHT22;53339;51.378;0.094;2023-09-30T08:26:34;14.00;90.10
26254;DHT22;53339;51.378;0.094;2023-09-30T08:29:07;14.10;90.10
26254;DHT22;53339;51.378;0.094;2023-09-30T08:31:39;14.20;90.10
26254;DHT22;53339;51.378;0.094;2023-09-30T08:34:35;14.20;90.10
26254;DHT22;53339;51.378;0.094;2023-09-30T08:37:16;14.40;90.10
26254;DHT22;53339;51.378;0.094;2023-09-30T08:39:56;14.50;90.10
26254;DHT22;53339;51.378;0.094;2023-09-30T08:42:39;14.60;90.10
26254;DHT22;53339;51.378;0.094;2023-09-30T08:45:10;14.60;90.10
26254;DHT22;53339;51.378;0.094;2023-09-30T08:47:40;14.70;90.10
26254;DHT22;53339;51.378;0.094;2023-09-30T08:50:13;14.80;90.10
26254;DHT22;53339;51.378;0.094;2023-09-30T08:52:49;14.90;89.90
26254;DHT22;53339;51.378;0.094;2023-09-30T08:55:27;15.00;90.00
26254;DHT22;53339;51.378;0.094;2023-09-30T08:58:00;15.00;89.90
26254;DHT22;53339;51.378;0.094;2023-09-30T09:00:58;15.10;89.70
26254;DHT22;53339;51.378;0.094;2023-09-30T09:03:30;15.20;89.70
26254;DHT22;53339;51.378;0.094;2023-09-30T09:06:06;15.30;89.60
26254;DHT22;53339;51.378;0.094;2023-09-30T09:08:39;15.40;89.70
26254;DHT22;53339;51.378;0.094;2023-09-30T09:11:37;15.40;89.70
26254;DHT22;53339;51.378;0.094;2023-09-30T09:14:17;15.60;89.70
26254;DHT22;53339;51.378;0.094;2023-09-30T09:17:01;15.60;89.60
26254;DHT22;53339;51.378;0.094;2023-09-30T09:20:01;15.70;89.60
26254;DHT22;53339;51.378;0.094;2023-09-30T09:22:43;15.80;89.60
26254;DHT22;53339;51.378;0.094;2023-09-30T09:25:16;15.90;89.60
26254;DHT22;53339;51.378;0.094;2023-09-30T09:27:52;16.00;89.60
26254;DHT22;53339;51.378;0.094;2023-09-30T09:30:27;16.10;89.50
26254;DHT22;53339;51.378;0.094;2023-09-30T09:33:44;16.20;88.50
26254;DHT22;53339;51.378;0.094;2023-09-30T09:36:44;16.20;87.60
26254;DHT22;53339;51.378;0.094;2023-09-30T09:39:31;16.30;87.80
26254;DHT22;53339;51.378;0.094;2023-09-30T09:42:28;16.40;88.10
26254;DHT22;53339;51.378;0.094;2023-09-30T09:45:12;16.60;87.90
26254;DHT22;53339;51.378;0.094;2023-09-30T09:47:56;16.70;88.00
26254;DHT22;53339;51.378;0.094;2023-09-30T09:50:36;16.90;85.30
26254;DHT22;53339;51.378;0.094;2023-09-30T09:53:14;16.90;84.40
26254;DHT22;53339;51.378;0.094;2023-09-30T09:55:45;16.90;85.10
26254;DHT22;53339;51.378;0.094;2023-09-30T09:58:14;17.00;85.50
26254;DHT22;53339;51.378;0.094;2023-09-30T10:00:47;16.90;86.00
26254;DHT22;53339;51.378;0.094;2023-09-30T10:03:14;17.00;86.30
26254;DHT22;53339;51.378;0.094;2023-09-30T10:05:44;17.10;85.70
26254;DHT22;53339;51.378;0.094;2023-09-30T10:08:42;17.10;84.70
26254;DHT22;53339;51.378;0.094;2023-09-30T10:11:38;17.20;84.60
26254;DHT22;53339;51.378;0.094;2023-09-30T10:14:41;17.20;85.60
26254;DHT22;53339;51.378;0.094;2023-09-30T10:20:32;17.30;83.70
26254;DHT22;53339;51.378;0.094;2023-09-30T10:23:35;17.30;84.00
26254;DHT22;53339;51.378;0.094;2023-09-30T10:26:17;17.30;81.20
26254;DHT22;53339;51.378;0.094;2023-09-30T10:28:52;17.30;80.70
26254;DHT22;53339;51.378;0.094;2023-09-30T10:31:31;17.30;81.60
26254;DHT22;53339;51.378;0.094;2023-09-30T10:34:21;17.30;81.90
26254;DHT22;53339;51.378;0.094;2023-09-30T10:37:24;17.40;81.80
26254;DHT22;53339;51.378;0.094;2023-09-30T10:40:03;17.40;80.80
26254;DHT22;53339;51.378;0.094;2023-09-30T10:42:54;17.50;79.10
26254;DHT22;53339;51.378;0.094;2023-09-30T10:45:43;17.60;79.00
26254;DHT22;53339;51.378;0.094;2023-09-30T10:48:39;17.70;79.80
26254;DHT22;53339;51.378;0.094;2023-09-30T10:51:19;18.00;77.60
26254;DHT22;53339;51.378;0.094;2023-09-30T10:54:12;18.20;76.20
26254;DHT22;53339;51.378;0.094;2023-09-30T10:56:40;18.20;77.70
26254;DHT22;53339;51.378;0.094;2023-09-30T10:59:26;18.40;79.50
26254;DHT22;53339;51.378;0.094;2023-09-30T11:02:20;18.50;79.80
26254;DHT22;53339;51.378;0.094;2023-09-30T11:04:53;18.60;80.20
26254;DHT22;53339;51.378;0.094;2023-09-30T11:07:26;18.80;81.10
26254;DHT22;53339;51.378;0.094;2023-09-30T11:10:04;18.90;81.30
26254;DHT22;53339;51.378;0.094;2023-09-30T11:12:34;19.00;80.00
26254;DHT22;53339;51.378;0.094;2023-09-30T11:15:09;19.10;81.00
26254;DHT22;53339;51.378;0.094;2023-09-30T11:18:12;19.20;81.80
26254;DHT22;53339;51.378;0.094;2023-09-30T11:20:43;19.20;79.20
26254;DHT22;53339;51.378;0.094;2023-09-30T11:23:20;19.30;81.60
26254;DHT22;53339;51.378;0.094;2023-09-30T11:25:54;19.40;82.20
26254;DHT22;53339;51.378;0.094;2023-09-30T11:28:24;19.40;78.20
26254;DHT22;53339;51.378;0.094;2023-09-30T11:30:58;19.40;76.60
26254;DHT22;53339;51.378;0.094;2023-09-30T11:33:31;19.30;79.30
26254;DHT22;53339;51.378;0.094;2023-09-30T11:36:04;19.30;80.20
26254;DHT22;53339;51.378;0.094;2023-09-30T11:38:35;19.30;78.20
26254;DHT22;53339;51.378;0.094;2023-09-30T11:41:09;19.30;79.90
26254;DHT22;53339;51.378;0.094;2023-09-30T11:44:00;19.30;79.00
26254;DHT22;53339;51.378;0.094;2023-09-30T11:46:31;19.40;81.30
26254;DHT22;53339;51.378;0.094;2023-09-30T11:49:12;19.40;80.10
26254;DHT22;53339;51.378;0.094;2023-09-30T11:51:44;19.40;80.00
26254;DHT22;53339;51.378;0.094;2023-09-30T11:54:19;19.40;80.10
26254;DHT22;53339;51.378;0.094;2023-09-30T11:56:52;19.40;80.80
26254;DHT22;53339;51.378;0.094;2023-09-30T11:59:28;19.30;81.50
26254;DHT22;53339;51.378;0.094;2023-09-30T12:01:57;19.30;78.50
26254;DHT22;53339;51.378;0.094;2023-09-30T12:04:45;19.20;72.70
26254;DHT22;53339;51.378;0.094;2023-09-30T12:07:19;19.10;76.10
26254;DHT22;53339;51.378;0.094;2023-09-30T12:10:01;19.10;75.60
26254;DHT22;53339;51.378;0.094;2023-09-30T12:12:45;19.10;73.00
26254;DHT22;53339;51.378;0.094;2023-09-30T12:15:18;19.10;74.40
26254;DHT22;53339;51.378;0.094;2023-09-30T12:18:00;19.10;77.10
26254;DHT22;53339;51.378;0.094;2023-09-30T12:20:33;19.20;77.40
26254;DHT22;53339;51.378;0.094;2023-09-30T12:23:29;19.40;78.90
26254;DHT22;53339;51.378;0.094;2023-09-30T12:26:05;19.70;79.10
26254;DHT22;53339;51.378;0.094;2023-09-30T12:28:44;19.90;77.90
26254;DHT22;53339;51.378;0.094;2023-09-30T12:31:31;20.10;78.20
26254;DHT22;53339;51.378;0.094;2023-09-30T12:34:28;20.30;74.90
26254;DHT22;53339;51.378;0.094;2023-09-30T12:37:10;20.20;70.70
26254;DHT22;53339;51.378;0.094;2023-09-30T12:39:44;20.20;70.00
26254;DHT22;53339;51.378;0.094;2023-09-30T12:42:25;20.10;67.30
26254;DHT22;53339;51.378;0.094;2023-09-30T12:45:04;20.00;69.30
26254;DHT22;53339;51.378;0.094;2023-09-30T12:47:40;20.10;73.50
26254;DHT22;53339;51.378;0.094;2023-09-30T12:50:21;20.20;73.70
26254;DHT22;53339;51.378;0.094;2023-09-30T12:53:08;20.30;76.20
26254;DHT22;53339;51.378;0.094;2023-09-30T12:55:44;20.50;75.00
26254;DHT22;53339;51.378;0.094;2023-09-30T12:58:22;20.70;75.70
26254;DHT22;53339;51.378;0.094;2023-09-30T13:01:08;20.80;77.70
26254;DHT22;53339;51.378;0.094;2023-09-30T13:03:54;20.90;74.90
26254;DHT22;53339;51.378;0.094;2023-09-30T13:06:31;20.90;74.30
26254;DHT22;53339;51.378;0.094;2023-09-30T13:09:09;20.90;72.70
26254;DHT22;53339;51.378;0.094;2023-09-30T13:11:50;20.80;71.80
26254;DHT22;53339;51.378;0.094;2023-09-30T13:14:24;20.70;73.50
26254;DHT22;53339;51.378;0.094;2023-09-30T13:17:04;20.70;76.00
26254;DHT22;53339;51.378;0.094;2023-09-30T13:19:49;21.00;77.50
26254;DHT22;53339;51.378;0.094;2023-09-30T13:22:26;21.10;72.50
26254;DHT22;53339;51.378;0.094;2023-09-30T13:25:17;21.20;76.20
26254;DHT22;53339;51.378;0.094;2023-09-30T13:27:57;21.20;76.90
26254;DHT22;53339;51.378;0.094;2023-09-30T13:30:40;21.20;74.70
26254;DHT22;53339;51.378;0.094;2023-09-30T13:33:30;21.20;75.80
26254;DHT22;53339;51.378;0.094;2023-09-30T13:36:16;21.20;76.20
26254;DHT22;53339;51.378;0.094;2023-09-30T13:39:02;21.20;75.50
26254;DHT22;53339;51.378;0.094;2023-09-30T13:41:38;21.20;76.70
26254;DHT22;53339;51.378;0.094;2023-09-30T13:44:13;21.30;78.20
26254;DHT22;53339;51.378;0.094;2023-09-30T13:47:02;21.60;78.70
26254;DHT22;53339;51.378;0.094;2023-09-30T13:49:53;21.80;78.30
26254;DHT22;53339;51.378;0.094;2023-09-30T13:52:36;21.90;77.10
26254;DHT22;53339;51.378;0.094;2023-09-30T13:55:23;21.90;76.60
26254;DHT22;53339;51.378;0.094;2023-09-30T13:57:53;21.90;77.70
26254;DHT22;53339;51.378;0.094;2023-09-30T14:00:48;22.00;78.10
26254;DHT22;53339;51.378;0.094;2023-09-30T14:03:37;22.10;77.60
26254;DHT22;53339;51.378;0.094;2023-09-30T14:06:19;22.30;75.50
26254;DHT22;53339;51.378;0.094;2023-09-30T14:08:53;22.40;74.80
26254;DHT22;53339;51.378;0.094;2023-09-30T14:11:31;22.60;72.40
26254;DHT22;53339;51.378;0.094;2023-09-30T14:14:18;22.40;75.00
26254;DHT22;53339;51.378;0.094;2023-09-30T14:16:49;22.20;73.20
26254;DHT22;53339;51.378;0.094;2023-09-30T14:19:37;21.90;74.40
26254;DHT22;53339;51.378;0.094;2023-09-30T14:22:21;21.80;75.00
26254;DHT22;53339;51.378;0.094;2023-09-30T14:25:13;21.70;72.30
26254;DHT22;53339;51.378;0.094;2023-09-30T14:27:59;21.60;67.20
26254;DHT22;53339;51.378;0.094;2023-09-30T14:30:28;21.20;68.90
26254;DHT22;53339;51.378;0.094;2023-09-30T14:33:01;21.00;69.80
26254;DHT22;53339;51.378;0.094;2023-09-30T14:35:49;20.90;74.10
26254;DHT22;53339;51.378;0.094;2023-09-30T14:38:19;20.90;75.90
26254;DHT22;53339;51.378;0.094;2023-09-30T14:41:09;21.00;77.20
26254;DHT22;53339;51.378;0.094;2023-09-30T14:43:49;21.00;77.20
26254;DHT22;53339;51.378;0.094;2023-09-30T14:46:23;21.10;77.80
26254;DHT22;53339;51.378;0.094;2023-09-30T14:48:59;21.10;77.00
26254;DHT22;53339;51.378;0.094;2023-09-30T14:51:34;21.10;76.20
26254;DHT22;53339;51.378;0.094;2023-09-30T14:54:08;21.00;71.20
26254;DHT22;53339;51.378;0.094;2023-09-30T14:56:40;20.90;71.30
26254;DHT22;53339;51.378;0.094;2023-09-30T14:59:11;20.90;74.80
26254;DHT22;53339;51.378;0.094;2023-09-30T15:01:39;20.80;73.60
26254;DHT22;53339;51.378;0.094;2023-09-30T15:04:16;20.70;73.90
26254;DHT22;53339;51.378;0.094;2023-09-30T15:06:45;20.70;74.60
26254;DHT22;53339;51.378;0.094;2023-09-30T15:09:15;20.60;74.00
26254;DHT22;53339;51.378;0.094;2023-09-30T15:11:44;20.50;75.80
26254;DHT22;53339;51.378;0.094;2023-09-30T15:14:19;20.50;76.30
26254;DHT22;53339;51.378;0.094;2023-09-30T15:17:00;20.50;76.20
26254;DHT22;53339;51.378;0.094;2023-09-30T15:19:43;20.50;77.00
26254;DHT22;53339;51.378;0.094;2023-09-30T15:22:13;20.40;77.00
26254;DHT22;53339;51.378;0.094;2023-09-30T15:24:57;20.50;77.50
26254;DHT22;53339;51.378;0.094;2023-09-30T15:27:34;20.70;78.10
26254;DHT22;53339;51.378;0.094;2023-09-30T15:30:12;20.80;77.80
26254;DHT22;53339;51.378;0.094;2023-09-30T15:33:07;20.90;70.70
26254;DHT22;53339;51.378;0.094;2023-09-30T15:35:53;20.80;70.60
26254;DHT22;53339;51.378;0.094;2023-09-30T15:38:33;20.50;70.30
26254;DHT22;53339;51.378;0.094;2023-09-30T15:41:03;20.20;73.40
26254;DHT22;53339;51.378;0.094;2023-09-30T15:43:46;20.10;74.00
26254;DHT22;53339;51.378;0.094;2023-09-30T15:46:17;19.90;76.00
26254;DHT22;53339;51.378;0.094;2023-09-30T15:49:15;19.80;76.00
26254;DHT22;53339;51.378;0.094;2023-09-30T15:52:00;19.70;77.00
26254;DHT22;53339;51.378;0.094;2023-09-30T15:54:34;19.60;74.80
26254;DHT22;53339;51.378;0.094;2023-09-30T15:57:06;19.50;73.70
26254;DHT22;53339;51.378;0.094;2023-09-30T15:59:50;19.30;75.20
26254;DHT22;53339;51.378;0.094;2023-09-30T16:02:34;19.20;75.10
26254;DHT22;53339;51.378;0.094;2023-09-30T16:05:05;19.20;76.30
26254;DHT22;53339;51.378;0.094;2023-09-30T16:07:38;19.40;76.80
26254;DHT22;53339;51.378;0.094;2023-09-30T16:10:18;19.50;75.40
26254;DHT22;53339;51.378;0.094;2023-09-30T16:12:48;19.40;75.70
26254;DHT22;53339;51.378;0.094;2023-09-30T16:15:41;19.30;75.20
26254;DHT22;53339;51.378;0.094;2023-09-30T16:18:12;19.10;74.80
26254;DHT22;53339;51.378;0.094;2023-09-30T16:20:41;19.00;74.30
26254;DHT22;53339;51.378;0.094;2023-09-30T16:23:19;18.90;75.80
26254;DHT22;53339;51.378;0.094;2023-09-30T16:26:00;18.90;76.70
26254;DHT22;53339;51.378;0.094;2023-09-30T16:28:30;18.90;77.70
26254;DHT22;53339;51.378;0.094;2023-09-30T16:31:04;18.90;77.30
26254;DHT22;53339;51.378;0.094;2023-09-30T16:33:33;18.80;77.40
26254;DHT22;53339;51.378;0.094;2023-09-30T16:36:04;18.80;78.00
26254;DHT22;53339;51.378;0.094;2023-09-30T16:38:40;18.80;76.40
26254;DHT22;53339;51.378;0.094;2023-09-30T16:41:11;18.70;76.90
26254;DHT22;53339;51.378;0.094;2023-09-30T16:43:49;18.60;77.60
26254;DHT22;53339;51.378;0.094;2023-09-30T16:46:26;18.60;77.60
26254;DHT22;53339;51.378;0.094;2023-09-30T16:49:15;18.50;76.60
26254;DHT22;53339;51.378;0.094;2023-09-30T16:51:47;18.40;77.10